Time;durP1;ratioP1;P1;durP2;ratioP2;P2;SDS_P1;SDS_P2;PMS_P1;PMS_P2;Temp;Humidity;BMP_temperature;BMP_pressure;BME280_temperature;BME280_humidity;BME280_pressure;Samples;Min_cycle;Max_cycle;Signal;HPM_P1;HPM_P2
2022/07/24 00:01:41;;;;;;;12.20;10.67;;;29.80;78.60;;;;;;5118875;28;20258;-94
2022/07/24 00:04:07;;;;;;;11.80;10.70;;;29.80;78.50;;;;;;5116511;28;20698;-92
2022/07/24 00:06:33;;;;;;;11.73;10.63;;;29.80;78.40;;;;;;5116405;28;20226;-94
2022/07/24 00:08:59;;;;;;;10.67;9.63;;;29.70;78.50;;;;;;5116722;28;20527;-94
2022/07/24 00:11:25;;;;;;;13.00;10.30;;;29.70;78.50;;;;;;5118452;28;20202;-94
2022/07/24 00:13:50;;;;;;;13.30;10.00;;;29.70;78.60;;;;;;5117822;28;20407;-91
2022/07/24 00:16:16;;;;;;;11.77;10.60;;;29.70;78.60;;;;;;5118974;28;20590;-92
2022/07/24 00:18:42;;;;;;;11.30;10.03;;;29.70;78.80;;;;;;5116269;28;20266;-92
2022/07/24 00:21:08;;;;;;;17.93;10.70;;;29.70;78.90;;;;;;5116168;28;20201;-93
2022/07/24 00:23:33;;;;;;;11.27;10.10;;;29.60;79.10;;;;;;5118960;28;20217;-93
2022/07/24 00:25:59;;;;;;;11.93;10.83;;;29.60;79.30;;;;;;5116288;28;20647;-92
2022/07/24 00:28:25;;;;;;;12.57;9.70;;;29.60;79.50;;;;;;5118076;28;20179;-92
2022/07/24 00:30:51;;;;;;;12.77;10.20;;;29.50;79.60;;;;;;5115983;28;20185;-92
2022/07/24 00:33:17;;;;;;;12.20;9.90;;;29.50;79.90;;;;;;5116338;28;20203;-93
2022/07/24 00:35:43;;;;;;;11.27;9.73;;;29.50;80.00;;;;;;5115822;28;20215;-94
2022/07/24 00:38:09;;;;;;;12.10;10.80;;;29.40;80.30;;;;;;5116997;28;20424;-93
2022/07/24 00:40:35;;;;;;;11.07;9.93;;;29.40;80.20;;;;;;5122244;28;20404;-94
2022/07/24 00:43:03;;;;;;;12.70;11.00;;;29.30;81.20;;;;;;5118278;28;20479;-94
2022/07/24 00:45:28;;;;;;;10.67;9.63;;;29.20;80.60;;;;;;5119680;28;20466;-93
2022/07/24 00:47:54;;;;;;;10.50;8.90;;;29.10;79.80;;;;;;5116157;28;20435;-94
2022/07/24 00:50:20;;;;;;;15.97;9.50;;;29.00;81.00;;;;;;5117819;28;20178;-93
2022/07/24 00:52:46;;;;;;;11.53;8.50;;;28.90;81.10;;;;;;5116480;28;20198;-94
2022/07/24 00:55:12;;;;;;;11.80;8.90;;;28.80;82.20;;;;;;5116488;28;20175;-93
2022/07/24 00:57:38;;;;;;;13.43;8.30;;;28.70;83.70;;;;;;5115362;28;20574;-93
2022/07/24 01:00:06;;;;;;;11.73;7.97;;;28.60;84.10;;;;;;5115350;28;20210;-93
2022/07/24 01:02:32;;;;;;;10.90;8.80;;;28.50;84.30;;;;;;5115400;28;20470;-93
2022/07/24 01:04:57;;;;;;;11.50;8.63;;;28.40;85.30;;;;;;5115985;28;20409;-93
2022/07/24 01:07:23;;;;;;;11.07;7.77;;;28.40;86.80;;;;;;5115035;28;20495;-93
2022/07/24 01:09:50;;;;;;;12.43;8.33;;;28.30;87.40;;;;;;5116233;28;20175;-93
2022/07/24 01:12:17;;;;;;;8.63;7.63;;;28.20;87.10;;;;;;5115330;28;20573;-93
2022/07/24 01:14:44;;;;;;;12.97;7.70;;;28.10;87.30;;;;;;5115122;28;20406;-93
2022/07/24 01:17:10;;;;;;;13.83;7.20;;;28.10;87.70;;;;;;5119564;28;20436;-93
2022/07/24 01:19:36;;;;;;;8.60;7.40;;;28.00;88.40;;;;;;5115231;28;20758;-92
2022/07/24 01:22:01;;;;;;;8.03;7.23;;;28.00;88.20;;;;;;5116132;28;20490;-93
2022/07/24 01:24:27;;;;;;;9.47;6.70;;;27.90;88.70;;;;;;5114974;28;20209;-92
2022/07/24 01:26:53;;;;;;;10.53;7.00;;;27.80;89.00;;;;;;5115419;28;20189;-93
2022/07/24 01:29:19;;;;;;;10.53;7.07;;;27.80;88.20;;;;;;5117100;28;20169;-94
2022/07/24 01:31:45;;;;;;;8.17;6.90;;;27.60;88.60;;;;;;5116291;28;20857;-93
2022/07/24 01:34:10;;;;;;;10.77;7.10;;;27.60;88.00;;;;;;5114986;28;20187;-93
2022/07/24 01:36:36;;;;;;;9.13;6.97;;;27.60;88.80;;;;;;5116068;28;20275;-91
2022/07/24 01:39:02;;;;;;;8.07;5.90;;;27.50;89.40;;;;;;5115319;28;20176;-92
2022/07/24 01:41:28;;;;;;;8.33;6.47;;;27.40;90.20;;;;;;5114550;28;20192;-93
2022/07/24 01:43:53;;;;;;;9.80;6.93;;;27.30;90.20;;;;;;5115068;28;20424;-92
2022/07/24 01:46:19;;;;;;;8.37;6.73;;;27.30;90.40;;;;;;5122209;28;20200;-93
2022/07/24 01:48:45;;;;;;;8.67;7.50;;;27.30;90.40;;;;;;5116160;28;20251;-91
2022/07/24 01:51:10;;;;;;;7.17;6.13;;;27.30;90.10;;;;;;5114512;28;20179;-94
2022/07/24 01:53:36;;;;;;;7.57;6.37;;;27.30;90.20;;;;;;5114692;28;20653;-93
2022/07/24 01:56:03;;;;;;;7.07;6.27;;;27.20;89.50;;;;;;5115468;28;20258;-92
2022/07/24 01:58:29;;;;;;;7.40;5.60;;;27.20;90.00;;;;;;5114720;28;20194;-93
2022/07/24 02:00:55;;;;;;;6.83;5.90;;;27.30;89.80;;;;;;5116820;28;20435;-93
2022/07/24 02:03:21;;;;;;;8.27;5.67;;;27.30;88.80;;;;;;5114227;28;20226;-93
2022/07/24 02:05:47;;;;;;;7.00;5.00;;;27.30;89.40;;;;;;5115507;28;20524;-93
2022/07/24 02:08:13;;;;;;;6.27;5.60;;;27.30;89.50;;;;;;5114029;28;20531;-93
2022/07/24 02:10:39;;;;;;;7.23;5.50;;;27.30;90.00;;;;;;5115343;28;20905;-93
2022/07/24 02:13:05;;;;;;;5.63;5.13;;;27.30;90.00;;;;;;5116085;28;20196;-94
2022/07/24 02:15:31;;;;;;;5.80;5.20;;;27.40;90.10;;;;;;5114277;28;20427;-92
2022/07/24 02:17:59;;;;;;;7.53;5.33;;;27.40;90.20;;;;;;5115216;28;20504;-94
2022/07/24 02:20:26;;;;;;;7.67;6.00;;;27.40;90.30;;;;;;5115321;28;20409;-92
2022/07/24 02:22:52;;;;;;;7.77;7.00;;;27.50;90.40;;;;;;5117711;28;20467;-93
2022/07/24 02:25:18;;;;;;;6.30;5.37;;;27.50;90.60;;;;;;5118601;28;20822;-93
2022/07/24 02:27:43;;;;;;;5.83;5.20;;;27.50;90.70;;;;;;5117295;28;20416;-93
2022/07/24 02:30:12;;;;;;;8.50;6.10;;;27.50;90.70;;;;;;5118447;28;20444;-93
2022/07/24 02:32:38;;;;;;;7.90;5.17;;;27.50;90.90;;;;;;5117111;28;20202;-92
2022/07/24 02:35:04;;;;;;;7.43;5.27;;;27.50;91.00;;;;;;5115990;28;20500;-93
2022/07/24 02:37:30;;;;;;;7.50;5.90;;;27.50;91.10;;;;;;5116699;28;20439;-91
2022/07/24 02:39:56;;;;;;;6.90;4.30;;;27.50;91.20;;;;;;5120148;28;20449;-93
2022/07/24 02:42:21;;;;;;;5.13;4.63;;;27.60;91.30;;;;;;5118235;28;20238;-93
2022/07/24 02:44:47;;;;;;;6.97;4.60;;;27.60;91.20;;;;;;5118297;28;20175;-92
2022/07/24 02:47:13;;;;;;;6.37;4.97;;;27.60;91.00;;;;;;5118199;28;20199;-94
2022/07/24 02:49:39;;;;;;;5.57;5.03;;;27.60;90.90;;;;;;5117920;28;20180;-93
2022/07/24 02:52:04;;;;;;;6.63;4.87;;;27.60;90.80;;;;;;5118932;28;20196;-93
2022/07/24 02:54:30;;;;;;;5.57;4.93;;;27.60;90.80;;;;;;5118044;28;20194;-92
2022/07/24 02:56:56;;;;;;;5.23;4.63;;;27.60;90.90;;;;;;5119130;28;20194;-93
2022/07/24 02:59:23;;;;;;;6.83;5.63;;;27.60;90.90;;;;;;5117854;28;20171;-92
2022/07/24 03:01:48;;;;;;;7.80;5.07;;;27.60;90.90;;;;;;5118981;28;20508;-93
2022/07/24 03:04:14;;;;;;;5.23;4.73;;;27.60;90.90;;;;;;5119347;28;20400;-91
2022/07/24 03:06:40;;;;;;;6.93;5.47;;;27.50;90.80;;;;;;5117686;28;20203;-93
2022/07/24 03:09:05;;;;;;;5.87;5.30;;;27.50;90.80;;;;;;5117414;28;20246;-94
2022/07/24 03:11:31;;;;;;;6.10;5.00;;;27.60;90.70;;;;;;5117773;28;20563;-93
2022/07/24 03:13:58;;;;;;;6.20;4.83;;;27.50;90.70;;;;;;5118703;28;20195;-93
2022/07/24 03:16:24;;;;;;;7.50;5.83;;;27.50;90.80;;;;;;5118449;28;20456;-93
2022/07/24 03:18:49;;;;;;;5.10;4.53;;;27.40;90.80;;;;;;5117318;28;20186;-92
2022/07/24 03:21:17;;;;;;;7.70;6.27;;;27.40;90.90;;;;;;5118732;28;20180;-93
2022/07/24 03:23:42;;;;;;;9.03;5.70;;;27.30;90.90;;;;;;5117346;28;20735;-93
2022/07/24 03:26:08;;;;;;;10.00;6.40;;;27.30;91.00;;;;;;5118502;28;20461;-95
2022/07/24 03:28:34;;;;;;;6.43;5.30;;;27.30;91.30;;;;;;5119119;28;20400;-92
2022/07/24 03:31:01;;;;;;;7.97;6.80;;;27.20;91.40;;;;;;5120034;28;20219;-93
2022/07/24 03:33:27;;;;;;;6.90;6.00;;;27.20;91.70;;;;;;5117249;28;20539;-93
2022/07/24 03:35:53;;;;;;;6.93;5.67;;;27.20;92.00;;;;;;5118175;28;20428;-94
2022/07/24 03:38:19;;;;;;;9.77;7.37;;;27.20;92.20;;;;;;5116960;28;20445;-92
2022/07/24 03:40:45;;;;;;;7.73;6.53;;;27.20;92.40;;;;;;5118041;28;20412;-93
2022/07/24 03:43:11;;;;;;;10.43;7.37;;;27.20;92.60;;;;;;5120648;28;20229;-93
2022/07/24 03:45:37;;;;;;;7.80;7.00;;;27.20;92.90;;;;;;5116873;28;20172;-92
2022/07/24 03:48:03;;;;;;;9.50;7.30;;;27.20;93.00;;;;;;5117823;28;20203;-93
2022/07/24 03:50:29;;;;;;;9.60;7.80;;;27.30;93.20;;;;;;5115926;28;20909;-92
2022/07/24 03:52:54;;;;;;;10.33;7.23;;;27.30;93.30;;;;;;5116726;28;20881;-93
2022/07/24 03:55:20;;;;;;;9.87;6.77;;;27.30;93.40;;;;;;5119481;28;20645;-94
2022/07/24 03:57:46;;;;;;;11.33;8.30;;;27.30;93.60;;;;;;5116562;28;20196;-93
2022/07/24 04:00:12;;;;;;;9.03;7.70;;;27.30;93.80;;;;;;5116490;28;20174;-93
2022/07/24 04:02:38;;;;;;;10.07;8.20;;;27.30;93.90;;;;;;5116423;28;20223;-93
2022/07/24 04:05:08;;;;;;;11.00;7.77;;;27.30;94.10;;;;;;5116371;28;20437;-92
2022/07/24 04:07:37;;;;;;;10.17;8.60;;;27.20;94.10;;;;;;5118595;28;20466;-93
2022/07/24 04:10:05;;;;;;;9.70;8.07;;;27.20;94.30;;;;;;5118023;28;20420;-93
2022/07/24 04:12:31;;;;;;;9.67;8.17;;;27.30;94.40;;;;;;5116081;28;20505;-93
2022/07/24 04:14:56;;;;;;;10.57;8.00;;;27.30;94.60;;;;;;5116277;28;20418;-91
2022/07/24 04:17:22;;;;;;;9.83;7.90;;;27.20;94.70;;;;;;5118188;28;20595;-93
2022/07/24 04:19:48;;;;;;;10.10;8.13;;;27.20;94.80;;;;;;5116692;28;20188;-91
2022/07/24 04:22:13;;;;;;;10.63;8.20;;;27.20;95.00;;;;;;5118257;28;20253;-93
2022/07/24 04:24:39;;;;;;;10.03;7.60;;;27.10;95.00;;;;;;5116320;28;20210;-92
2022/07/24 04:27:05;;;;;;;9.30;7.93;;;27.10;95.10;;;;;;5120588;28;20743;-94
2022/07/24 04:29:31;;;;;;;10.77;9.30;;;27.10;95.20;;;;;;5119414;28;20180;-93
2022/07/24 04:31:57;;;;;;;11.57;8.60;;;27.10;95.40;;;;;;5117421;28;20642;-94
2022/07/24 04:34:22;;;;;;;10.03;8.10;;;27.10;95.40;;;;;;5115774;28;20412;-92
2022/07/24 04:36:48;;;;;;;9.50;7.60;;;27.10;95.60;;;;;;5117753;28;20188;-93
2022/07/24 04:39:14;;;;;;;8.83;7.93;;;27.10;95.80;;;;;;5115957;28;20584;-92
2022/07/24 04:41:40;;;;;;;9.20;8.30;;;27.10;95.90;;;;;;5115713;28;20688;-92
2022/07/24 04:44:06;;;;;;;9.60;7.80;;;27.10;95.90;;;;;;5115717;28;20184;-93
2022/07/24 04:46:32;;;;;;;9.80;8.60;;;27.00;96.00;;;;;;5116958;28;20440;-93
2022/07/24 04:48:57;;;;;;;8.80;7.70;;;27.10;96.10;;;;;;5119251;28;20617;-93
2022/07/24 04:51:23;;;;;;;10.43;8.90;;;27.10;96.30;;;;;;5115692;28;20188;-95
2022/07/24 04:53:52;;;;;;;8.83;7.90;;;27.10;96.20;;;;;;5116390;28;20179;-93
2022/07/24 04:56:21;;;;;;;11.10;8.33;;;27.00;96.30;;;;;;5115400;28;20199;-93
2022/07/24 04:58:47;;;;;;;11.93;8.77;;;27.00;96.40;;;;;;5115604;28;20428;-93
2022/07/24 05:01:14;;;;;;;9.53;8.30;;;27.00;96.50;;;;;;5114385;28;20436;-93
2022/07/24 05:03:40;;;;;;;8.60;7.70;;;27.00;96.70;;;;;;5116714;28;20494;-93
2022/07/24 05:06:06;;;;;;;10.00;8.43;;;26.90;96.80;;;;;;5115049;28;20427;-94
2022/07/24 05:08:31;;;;;;;10.27;8.10;;;26.90;97.00;;;;;;5115276;28;20478;-94
2022/07/24 05:10:57;;;;;;;10.53;8.40;;;26.90;97.20;;;;;;5116353;28;20758;-92
2022/07/24 05:13:23;;;;;;;12.77;8.83;;;26.90;97.30;;;;;;5115337;28;20287;-92
2022/07/24 05:15:48;;;;;;;9.27;8.37;;;26.80;97.50;;;;;;5115394;28;20176;-92
2022/07/24 05:18:14;;;;;;;10.67;9.50;;;26.80;97.70;;;;;;5116318;28;20568;-94
2022/07/24 05:20:40;;;;;;;9.10;7.77;;;26.80;97.80;;;;;;5116109;28;20581;-93
2022/07/24 05:23:06;;;;;;;11.47;8.97;;;26.80;97.90;;;;;;5114839;28;20635;-93
2022/07/24 05:25:32;;;;;;;11.93;8.97;;;26.70;97.80;;;;;;5116162;28;20419;-93
2022/07/24 05:27:57;;;;;;;13.57;9.20;;;26.80;97.70;;;;;;5115966;28;20195;-92
2022/07/24 05:30:23;;;;;;;10.20;9.00;;;26.80;97.80;;;;;;5117844;28;20197;-93
2022/07/24 05:32:49;;;;;;;9.23;8.07;;;26.80;97.90;;;;;;5114937;28;20672;-93
2022/07/24 05:35:14;;;;;;;9.70;8.13;;;26.80;98.00;;;;;;5114723;28;20210;-93
2022/07/24 05:37:40;;;;;;;11.13;9.20;;;26.80;98.00;;;;;;5115636;28;20634;-93
2022/07/24 05:40:06;;;;;;;10.47;8.83;;;26.80;98.00;;;;;;5115098;28;20309;-93
2022/07/24 05:42:32;;;;;;;10.40;8.90;;;26.80;97.90;;;;;;5115640;28;20215;-93
2022/07/24 05:44:58;;;;;;;9.20;7.67;;;26.80;97.90;;;;;;5114725;28;20940;-92
2022/07/24 05:47:23;;;;;;;11.50;8.80;;;26.80;97.90;;;;;;5114746;28;20282;-93
2022/07/24 05:49:49;;;;;;;10.57;8.77;;;26.80;97.90;;;;;;5115518;27;20172;-92
2022/07/24 05:52:15;;;;;;;9.27;7.70;;;26.90;97.90;;;;;;5114782;28;20226;-93
2022/07/24 05:54:40;;;;;;;8.87;7.40;;;26.90;97.90;;;;;;5116963;28;20197;-92
2022/07/24 05:57:06;;;;;;;9.70;7.77;;;26.90;97.80;;;;;;5115611;28;20195;-93
2022/07/24 05:59:32;;;;;;;8.37;7.30;;;26.90;97.80;;;;;;5114551;28;20176;-91
2022/07/24 06:01:59;;;;;;;14.33;8.50;;;26.90;97.90;;;;;;5115834;28;20204;-93
2022/07/24 06:04:25;;;;;;;8.73;7.83;;;26.90;97.90;;;;;;5115012;28;20184;-92
2022/07/24 06:06:51;;;;;;;14.97;8.80;;;26.90;97.90;;;;;;5119036;28;20943;-92
2022/07/24 06:09:16;;;;;;;9.43;7.90;;;26.80;98.00;;;;;;5114862;28;20256;-93
2022/07/24 06:11:42;;;;;;;10.10;8.93;;;26.80;98.10;;;;;;5114346;28;20195;-93
2022/07/24 06:14:08;;;;;;;9.90;8.10;;;26.80;98.10;;;;;;5115031;28;20229;-93
2022/07/24 06:16:33;;;;;;;9.80;8.43;;;26.90;98.20;;;;;;5114755;28;20596;-93
2022/07/24 06:18:59;;;;;;;9.40;8.00;;;26.90;98.20;;;;;;5117030;28;20175;-93
2022/07/24 06:21:25;;;;;;;8.10;7.30;;;26.90;98.20;;;;;;5114326;28;20200;-92
2022/07/24 06:23:50;;;;;;;9.53;8.33;;;26.90;98.30;;;;;;5117723;28;20241;-93
2022/07/24 06:26:16;;;;;;;8.87;7.17;;;26.90;98.30;;;;;;5118551;28;20204;-93
2022/07/24 06:28:42;;;;;;;10.73;8.33;;;27.00;98.50;;;;;;5120171;28;20184;-92
2022/07/24 06:31:07;;;;;;;15.20;8.20;;;27.00;98.40;;;;;;5121372;28;20176;-94
2022/07/24 06:33:33;;;;;;;8.87;8.07;;;27.00;98.40;;;;;;5116747;28;20172;-92
2022/07/24 06:35:59;;;;;;;8.37;7.57;;;27.10;98.40;;;;;;5114129;28;20180;-93
2022/07/24 06:38:25;;;;;;;9.93;7.47;;;27.10;98.40;;;;;;5113936;28;20182;-93
2022/07/24 06:40:51;;;;;;;9.67;8.77;;;27.10;98.40;;;;;;5114983;28;20420;-92
2022/07/24 06:43:16;;;;;;;13.37;7.80;;;27.10;98.50;;;;;;5114334;28;20216;-92
2022/07/24 06:45:43;;;;;;;8.87;7.43;;;27.10;98.50;;;;;;5115224;28;20176;-93
2022/07/24 06:48:09;;;;;;;9.07;8.17;;;27.10;98.60;;;;;;5114879;28;20236;-94
2022/07/24 06:50:35;;;;;;;9.87;8.20;;;27.10;98.70;;;;;;5114081;28;20420;-94
2022/07/24 06:53:00;;;;;;;8.83;7.40;;;27.20;98.70;;;;;;5114237;28;20195;-93
2022/07/24 06:55:26;;;;;;;8.37;7.47;;;27.20;98.70;;;;;;5116690;28;20427;-93
2022/07/24 06:57:52;;;;;;;11.67;8.10;;;27.30;98.70;;;;;;5115527;28;20237;-92
2022/07/24 07:00:18;;;;;;;11.53;7.70;;;27.30;98.50;;;;;;5114807;28;20169;-93
2022/07/24 07:02:45;;;;;;;7.40;6.70;;;27.30;98.60;;;;;;5113990;28;20884;-93
2022/07/24 07:05:11;;;;;;;9.80;8.00;;;27.40;98.50;;;;;;5114606;28;20408;-93
2022/07/24 07:07:37;;;;;;;10.17;9.07;;;27.40;98.40;;;;;;5114202;28;20489;-94
2022/07/24 07:10:04;;;;;;;9.97;8.50;;;27.40;98.20;;;;;;5114424;28;20172;-93
2022/07/24 07:12:30;;;;;;;10.10;8.53;;;27.50;98.30;;;;;;5114666;28;20807;-94
2022/07/24 07:14:58;;;;;;;8.20;7.17;;;27.50;98.40;;;;;;5114741;28;20396;-93
2022/07/24 07:17:24;;;;;;;10.50;7.90;;;27.60;98.30;;;;;;5115334;28;20652;-93
2022/07/24 07:19:49;;;;;;;9.00;8.00;;;27.60;98.20;;;;;;5114668;28;20404;-93
2022/07/24 07:22:15;;;;;;;10.43;7.57;;;27.60;98.10;;;;;;5115162;28;20223;-93
2022/07/24 07:24:41;;;;;;;8.97;7.90;;;27.70;98.10;;;;;;5114482;28;20187;-92
2022/07/24 07:27:06;;;;;;;10.20;7.90;;;27.70;97.90;;;;;;5117355;28;20232;-94
2022/07/24 07:29:32;;;;;;;9.43;8.43;;;27.70;98.00;;;;;;5117306;28;20184;-92
2022/07/24 07:31:58;;;;;;;10.83;8.13;;;27.80;97.90;;;;;;5119651;28;20559;-92
2022/07/24 07:34:24;;;;;;;10.77;8.87;;;27.80;98.00;;;;;;5117194;28;20657;-92
2022/07/24 07:36:49;;;;;;;13.07;9.27;;;27.90;98.00;;;;;;5118511;28;20579;-94
2022/07/24 07:39:15;;;;;;;8.80;7.90;;;28.00;97.90;;;;;;5118268;28;20256;-92
2022/07/24 07:41:41;;;;;;;9.10;7.80;;;28.10;97.80;;;;;;5118212;28;20582;-93
2022/07/24 07:44:06;;;;;;;9.73;8.73;;;28.10;97.80;;;;;;5116833;28;20185;-93
2022/07/24 07:46:32;;;;;;;10.60;8.73;;;28.20;97.80;;;;;;5117492;28;20192;-94
2022/07/24 07:48:58;;;;;;;15.30;9.57;;;28.20;97.90;;;;;;5117960;28;20222;-93
2022/07/24 07:51:23;;;;;;;9.27;8.37;;;28.30;97.90;;;;;;5116843;28;20195;-95
2022/07/24 07:53:49;;;;;;;10.13;9.07;;;28.40;98.00;;;;;;5117976;28;20188;-93
2022/07/24 07:56:15;;;;;;;10.10;8.90;;;28.50;97.90;;;;;;5117904;28;20181;-93
2022/07/24 07:58:41;;;;;;;11.10;9.07;;;28.60;97.90;;;;;;5119861;28;20347;-91
2022/07/24 08:01:06;;;;;;;12.97;8.93;;;28.60;97.90;;;;;;5117949;28;20201;-93
2022/07/24 08:03:32;;;;;;;12.63;8.90;;;28.70;98.00;;;;;;5117289;28;20208;-93
2022/07/24 08:06:00;;;;;;;9.70;8.70;;;28.70;97.80;;;;;;5116355;28;20269;-94
2022/07/24 08:08:25;;;;;;;11.50;8.83;;;28.80;97.50;;;;;;5115668;28;20698;-94
2022/07/24 08:10:51;;;;;;;10.30;9.13;;;28.80;97.40;;;;;;5115047;28;20438;-93
2022/07/24 08:13:18;;;;;;;11.27;9.00;;;28.90;97.00;;;;;;5116319;28;20696;-92
2022/07/24 08:15:44;;;;;;;9.40;8.20;;;29.00;96.80;;;;;;5117552;28;20538;-94
2022/07/24 08:18:10;;;;;;;9.90;8.90;;;29.10;96.20;;;;;;5114447;28;20438;-94
2022/07/24 08:20:36;;;;;;;9.70;8.20;;;29.20;95.50;;;;;;5115074;28;20423;-93
2022/07/24 08:23:01;;;;;;;9.97;8.97;;;29.30;95.40;;;;;;5114696;28;20473;-93
2022/07/24 08:25:28;;;;;;;8.77;7.83;;;29.40;95.60;;;;;;5115564;28;20669;-94
2022/07/24 08:27:54;;;;;;;9.77;8.40;;;29.40;95.50;;;;;;5114281;28;20251;-94
2022/07/24 08:30:21;;;;;;;12.43;7.70;;;29.50;95.40;;;;;;5114898;28;21005;-94
2022/07/24 08:32:47;;;;;;;9.87;8.37;;;29.60;95.00;;;;;;5120919;28;20520;-93
2022/07/24 08:35:14;;;;;;;8.83;7.97;;;29.70;94.70;;;;;;5112361;28;20487;-94
2022/07/24 08:37:41;;;;;;;8.47;7.57;;;29.70;94.20;;;;;;5114210;28;20252;-94
2022/07/24 08:40:08;;;;;;;11.17;7.63;;;29.80;94.20;;;;;;5114096;28;20424;-94
2022/07/24 08:42:35;;;;;;;8.13;7.33;;;29.80;93.90;;;;;;5113965;28;20475;-95
2022/07/24 08:45:02;;;;;;;10.57;7.53;;;29.90;93.90;;;;;;5114179;28;20418;-92
2022/07/24 08:47:31;;;;;;;8.87;7.97;;;30.00;94.00;;;;;;5114408;28;20451;-94
2022/07/24 08:49:58;;;;;;;10.10;7.90;;;30.00;94.00;;;;;;5115134;28;20458;-95
2022/07/24 08:52:25;;;;;;;8.73;7.77;;;30.20;93.40;;;;;;5115740;28;20445;-95
2022/07/24 08:54:53;;;;;;;8.57;7.23;;;30.20;92.70;;;;;;5122026;28;20605;-94
2022/07/24 08:57:19;;;;;;;8.70;7.77;;;30.30;92.80;;;;;;5124508;28;20482;-95
2022/07/24 08:59:45;;;;;;;8.80;7.40;;;30.40;92.50;;;;;;5116994;28;20429;-92
2022/07/24 09:02:12;;;;;;;9.50;8.10;;;30.50;92.50;;;;;;5115341;28;20621;-93
2022/07/24 09:04:46;;;;;;;8.93;8.03;;;30.60;92.20;;;;;;5115289;28;20187;-96
2022/07/24 09:07:18;;;;;;;9.03;8.13;;;30.70;91.80;;;;;;5115172;28;20661;-94
2022/07/24 09:09:58;;;;;;;9.33;8.20;;;30.80;91.90;;;;;;5117131;28;20410;-93
2022/07/24 09:12:24;;;;;;;8.20;7.40;;;30.90;91.60;;;;;;5115283;28;20462;-93
2022/07/24 09:14:49;;;;;;;9.97;8.43;;;30.90;91.50;;;;;;5102335;28;20794;-95
2022/07/24 09:17:18;;;;;;;9.43;8.47;;;30.90;91.50;;;;;;5115196;28;20213;-95
2022/07/24 09:19:47;;;;;;;8.60;7.53;;;30.90;91.40;;;;;;5108491;28;20197;-94
2022/07/24 09:22:28;;;;;;;15.57;8.77;;;30.80;91.40;;;;;;5115120;28;20579;-94
2022/07/24 09:25:08;;;;;;;9.40;8.10;;;30.90;91.30;;;;;;5115196;28;20978;-94
2022/07/24 09:27:36;;;;;;;9.03;8.13;;;30.80;91.60;;;;;;5115268;28;20463;-95
2022/07/24 09:30:03;;;;;;;10.37;7.80;;;30.80;91.30;;;;;;5114876;28;20563;-94
2022/07/24 09:32:29;;;;;;;9.83;8.83;;;30.80;91.00;;;;;;5116385;28;20447;-94
2022/07/24 09:34:55;;;;;;;9.73;8.83;;;30.90;91.10;;;;;;5114900;28;20743;-93
2022/07/24 09:37:21;;;;;;;9.13;8.07;;;30.90;90.80;;;;;;5116649;27;20190;-92
2022/07/24 09:39:48;;;;;;;9.20;8.40;;;30.90;90.40;;;;;;5113864;28;20675;-93
2022/07/24 09:42:14;;;;;;;8.13;7.30;;;31.00;90.40;;;;;;5113049;28;20484;-94
2022/07/24 09:44:40;;;;;;;8.40;7.43;;;31.10;90.60;;;;;;5112853;28;20400;-93
2022/07/24 09:47:07;;;;;;;9.07;7.93;;;31.10;89.00;;;;;;5112313;28;20495;-94
2022/07/24 09:49:35;;;;;;;9.73;8.73;;;31.10;90.00;;;;;;5114096;28;20416;-94
2022/07/24 09:52:19;;;;;;;9.50;8.50;;;31.20;90.00;;;;;;5112676;28;20450;-93
2022/07/24 09:54:47;;;;;;;9.03;8.20;;;31.30;90.00;;;;;;5114452;28;20413;-93
2022/07/24 09:57:25;;;;;;;8.63;7.63;;;31.30;90.00;;;;;;5114521;28;20446;-94
2022/07/24 09:59:53;;;;;;;9.73;8.63;;;31.40;90.30;;;;;;5115556;28;20414;-93
2022/07/24 10:02:22;;;;;;;9.20;8.30;;;31.40;90.30;;;;;;5115158;28;20471;-94
2022/07/24 10:04:49;;;;;;;10.60;8.10;;;31.50;90.40;;;;;;5115428;28;20761;-94
2022/07/24 10:07:18;;;;;;;10.40;8.83;;;31.40;90.10;;;;;;5114672;28;20443;-94
2022/07/24 10:09:45;;;;;;;9.70;8.70;;;31.40;90.10;;;;;;5114324;28;20427;-93
2022/07/24 10:12:18;;;;;;;9.47;8.40;;;31.40;90.30;;;;;;5114509;28;21105;-93
2022/07/24 10:14:45;;;;;;;10.63;9.53;;;31.30;90.00;;;;;;5118617;28;20462;-93
2022/07/24 10:17:13;;;;;;;9.90;8.90;;;31.30;89.90;;;;;;5114814;28;20797;-94
2022/07/24 10:19:47;;;;;;;11.83;9.60;;;31.20;90.30;;;;;;5114202;28;20408;-94
2022/07/24 10:22:19;;;;;;;10.57;8.63;;;31.20;90.50;;;;;;5114371;28;20474;-94
2022/07/24 10:25:11;;;;;;;9.93;9.03;;;31.20;90.30;;;;;;5115208;28;20408;-94
2022/07/24 10:27:39;;;;;;;10.57;8.97;;;31.10;90.60;;;;;;5114891;28;20531;-94
2022/07/24 10:30:07;;;;;;;9.80;7.93;;;31.10;90.10;;;;;;5115077;28;20404;-93
2022/07/24 10:32:34;;;;;;;9.43;8.43;;;31.10;90.10;;;;;;5113945;28;20952;-94
2022/07/24 10:35:09;;;;;;;10.37;9.27;;;31.10;89.90;;;;;;5114025;28;20408;-93
2022/07/24 10:37:42;;;;;;;8.53;7.73;;;31.10;90.20;;;;;;5115086;28;20427;-93
2022/07/24 10:40:07;;;;;;;8.70;7.67;;;31.20;89.50;;;;;;5114186;28;20436;-94
2022/07/24 10:42:33;;;;;;;7.53;6.83;;;31.20;88.50;;;;;;5115408;28;20467;-94
2022/07/24 10:45:17;;;;;;;9.53;8.60;;;31.20;87.60;;;;;;5114130;28;20176;-94
2022/07/24 10:47:42;;;;;;;10.83;8.47;;;31.30;87.50;;;;;;5114146;28;20200;-94
2022/07/24 10:50:08;;;;;;;8.73;7.83;;;31.30;87.60;;;;;;5114900;28;20423;-93
2022/07/24 10:52:36;;;;;;;8.53;7.60;;;31.40;87.30;;;;;;5114391;28;20467;-94
2022/07/24 10:55:26;;;;;;;7.60;6.80;;;31.60;87.30;;;;;;5114802;28;20415;-94
2022/07/24 10:58:00;;;;;;;9.10;8.30;;;31.60;85.90;;;;;;5114037;28;20528;-93
2022/07/24 11:00:30;;;;;;;8.90;7.87;;;31.70;85.40;;;;;;5118802;28;20910;-94
2022/07/24 11:03:05;;;;;;;8.40;7.60;;;31.70;85.30;;;;;;5117614;28;20996;-94
2022/07/24 11:05:38;;;;;;;9.03;8.13;;;31.70;85.40;;;;;;5119254;28;20823;-93
2022/07/24 11:08:17;;;;;;;8.67;7.60;;;31.80;85.90;;;;;;5117969;28;20828;-93
2022/07/24 11:11:14;;;;;;;9.80;8.50;;;31.90;86.00;;;;;;5117903;28;20942;-93
2022/07/24 11:13:43;;;;;;;9.40;7.50;;;32.00;85.30;;;;;;5117695;28;20452;-94
2022/07/24 11:16:11;;;;;;;8.17;6.80;;;32.10;85.10;;;;;;5118715;28;20454;-94
2022/07/24 11:18:52;;;;;;;7.70;6.87;;;32.10;84.50;;;;;;5119430;28;20396;-93
2022/07/24 11:21:33;;;;;;;8.90;7.60;;;32.10;83.20;;;;;;5117484;28;20799;-93
2022/07/24 11:24:30;;;;;;;8.23;6.83;;;32.10;83.10;;;;;;5117134;28;20463;-94
2022/07/24 11:27:08;;;;;;;7.97;7.17;;;32.10;82.80;;;;;;5110018;28;20452;-94
2022/07/24 11:29:38;;;;;;;9.67;7.23;;;32.10;82.00;;;;;;5118544;28;20928;-94
2022/07/24 11:32:14;;;;;;;8.43;7.63;;;32.20;80.50;;;;;;5120332;28;20455;-93
2022/07/24 11:34:47;;;;;;;8.23;7.43;;;32.30;80.40;;;;;;5118302;28;20791;-93
2022/07/24 11:37:13;;;;;;;10.57;7.40;;;32.30;80.80;;;;;;5117199;28;20947;-94
2022/07/24 11:39:42;;;;;;;11.00;9.90;;;32.40;80.00;;;;;;5118261;28;20564;-94
2022/07/24 11:42:09;;;;;;;8.70;7.90;;;32.40;80.20;;;;;;5117071;28;20544;-94
2022/07/24 11:44:42;;;;;;;8.60;7.77;;;32.50;80.80;;;;;;5117663;28;20413;-94
2022/07/24 11:47:11;;;;;;;8.80;8.00;;;32.50;80.80;;;;;;5121396;28;20485;-93
2022/07/24 11:49:50;;;;;;;9.17;7.80;;;32.50;80.80;;;;;;5117337;28;20412;-93
2022/07/24 11:52:20;;;;;;;10.60;8.50;;;32.50;81.00;;;;;;5117757;28;20440;-94
2022/07/24 11:54:47;;;;;;;8.80;7.87;;;32.50;81.00;;;;;;5116832;28;20425;-93
2022/07/24 11:57:34;;;;;;;7.13;6.50;;;32.50;81.00;;;;;;5117110;28;20841;-93
2022/07/24 11:59:59;;;;;;;7.57;6.87;;;32.50;80.50;;;;;;5116701;28;20412;-94
2022/07/24 12:02:26;;;;;;;8.47;7.63;;;32.50;80.30;;;;;;5116682;28;20472;-94
2022/07/24 12:04:52;;;;;;;7.83;7.07;;;32.60;78.70;;;;;;5116619;28;20183;-94
2022/07/24 12:07:22;;;;;;;8.67;7.83;;;32.60;79.20;;;;;;5117646;28;20504;-93
2022/07/24 12:09:49;;;;;;;7.80;7.00;;;32.60;78.60;;;;;;5117370;28;20448;-94
2022/07/24 12:12:32;;;;;;;8.47;7.67;;;32.70;78.90;;;;;;5116355;28;20475;-94
2022/07/24 12:15:11;;;;;;;8.23;7.20;;;32.70;79.00;;;;;;5117521;28;20511;-94
2022/07/24 12:17:58;;;;;;;8.23;6.80;;;32.70;79.00;;;;;;5116441;28;20440;-94
2022/07/24 12:20:28;;;;;;;7.97;7.27;;;32.70;78.90;;;;;;5117456;28;20499;-94
2022/07/24 12:22:55;;;;;;;7.83;7.10;;;32.60;78.60;;;;;;5118498;28;20471;-93
2022/07/24 12:25:22;;;;;;;11.40;7.97;;;32.60;78.80;;;;;;5116389;28;20415;-93
2022/07/24 12:27:47;;;;;;;8.50;7.40;;;32.60;79.40;;;;;;5116218;28;20981;-94
2022/07/24 12:30:28;;;;;;;8.00;7.30;;;32.70;78.20;;;;;;5116108;28;20443;-94
2022/07/24 12:32:55;;;;;;;12.83;7.33;;;32.70;77.80;;;;;;5116141;28;20291;-94
2022/07/24 12:35:20;;;;;;;6.90;6.30;;;32.70;77.70;;;;;;5118737;28;20404;-93
2022/07/24 12:37:46;;;;;;;8.13;7.17;;;32.70;77.00;;;;;;5116937;28;20415;-93
2022/07/24 12:40:26;;;;;;;8.10;7.13;;;32.80;76.90;;;;;;5116047;28;20187;-94
2022/07/24 12:43:06;;;;;;;9.00;8.20;;;32.70;77.40;;;;;;5115890;28;20995;-94
2022/07/24 12:45:32;;;;;;;9.60;7.20;;;32.70;78.00;;;;;;5117639;28;20428;-94